createdAt,value
2022-08-01T00:01:41.410Z,22.75
2022-08-01T00:04:08.927Z,22.74
2022-08-01T00:06:36.442Z,22.69
2022-08-01T00:09:04.183Z,22.68
2022-08-01T00:11:31.776Z,22.67
2022-08-01T00:14:00.696Z,22.63
2022-08-01T00:16:28.422Z,22.57
2022-08-01T00:18:56.014Z,22.53
2022-08-01T00:21:23.797Z,22.53
2022-08-01T00:23:51.374Z,22.54
2022-08-01T00:26:18.972Z,22.57
2022-08-01T00:28:46.505Z,22.60
2022-08-01T00:31:15.351Z,22.62
2022-08-01T00:33:42.878Z,22.59
2022-08-01T00:36:10.461Z,22.57
2022-08-01T00:38:37.971Z,22.55
2022-08-01T00:41:05.534Z,22.52
2022-08-01T00:43:33.062Z,22.49
2022-08-01T00:46:00.597Z,22.45
2022-08-01T00:48:29.516Z,22.41
2022-08-01T00:50:57.067Z,22.40
2022-08-01T00:53:24.910Z,22.40
2022-08-01T00:55:53.616Z,22.38
2022-08-01T00:58:21.740Z,22.38
2022-08-01T01:00:53.707Z,22.38
2022-08-01T01:03:49.381Z,22.38
2022-08-01T01:06:25.653Z,22.44
2022-08-01T01:09:04.259Z,22.43
2022-08-01T01:11:43.353Z,22.45
2022-08-01T01:14:15.477Z,22.48
2022-08-01T01:16:45.485Z,22.51
2022-08-01T01:19:18.457Z,22.53
2022-08-01T01:22:11.255Z,22.56
2022-08-01T01:24:46.902Z,22.57
2022-08-01T01:27:23.278Z,22.58
2022-08-01T01:30:00.558Z,22.59
2022-08-01T01:32:34.883Z,22.58
2022-08-01T01:35:07.359Z,22.56
2022-08-01T01:37:35.617Z,22.58
2022-08-01T01:40:04.797Z,22.59
2022-08-01T01:42:33.953Z,22.56
2022-08-01T01:45:05.988Z,22.55
2022-08-01T01:47:34.817Z,22.52
2022-08-01T01:50:04.846Z,22.46
2022-08-01T01:52:33.855Z,22.48
2022-08-01T01:55:03.470Z,22.49
2022-08-01T01:57:33.039Z,22.48
2022-08-01T02:00:03.146Z,22.47
2022-08-01T02:02:31.460Z,22.49
2022-08-01T02:05:00.110Z,22.48
2022-08-01T02:07:29.438Z,22.46
2022-08-01T02:09:58.394Z,22.44
2022-08-01T02:12:26.571Z,22.38
2022-08-01T02:14:56.139Z,22.33
2022-08-01T02:17:26.588Z,22.30
2022-08-01T02:19:55.316Z,22.27
2022-08-01T02:22:29.313Z,22.26
2022-08-01T02:25:01.554Z,22.27
2022-08-01T02:27:31.965Z,22.29
2022-08-01T02:30:02.069Z,22.28
2022-08-01T02:32:34.105Z,22.21
2022-08-01T02:45:37.309Z,22.00
2022-08-01T02:48:12.570Z,21.95
2022-08-01T02:50:41.689Z,21.88
2022-08-01T02:53:11.281Z,21.81
2022-08-01T02:55:41.382Z,21.74
2022-08-01T02:58:10.549Z,21.69
2022-08-01T03:00:41.833Z,21.70
2022-08-01T03:03:14.032Z,21.68
2022-08-01T03:05:43.108Z,21.68
2022-08-01T03:08:12.078Z,21.65
2022-08-01T03:10:46.381Z,21.65
2022-08-01T03:13:15.521Z,21.63
2022-08-01T03:15:45.104Z,21.58
2022-08-01T03:18:16.472Z,21.52
2022-08-01T03:20:45.441Z,21.46
2022-08-01T03:23:14.364Z,21.42
2022-08-01T03:25:45.037Z,21.36
2022-08-01T03:28:15.954Z,21.34
2022-08-01T03:30:45.746Z,21.36
2022-08-01T03:33:14.865Z,21.38
2022-08-01T03:35:48.833Z,21.40
2022-08-01T03:38:21.040Z,21.45
2022-08-01T03:40:50.743Z,21.49
2022-08-01T03:43:22.430Z,21.48
2022-08-01T03:45:52.543Z,21.47
2022-08-01T03:48:29.796Z,21.51
2022-08-01T03:50:58.977Z,21.51
2022-08-01T03:53:30.584Z,21.49
2022-08-01T03:56:00.578Z,21.42
2022-08-01T03:58:29.259Z,21.36
2022-08-01T04:00:57.723Z,21.31
2022-08-01T04:03:27.659Z,21.24
2022-08-01T04:05:55.313Z,21.17
2022-08-01T04:08:22.847Z,21.13
2022-08-01T04:10:59.457Z,21.11
2022-08-01T04:13:36.829Z,21.09
2022-08-01T04:16:05.214Z,21.10
2022-08-01T04:18:34.182Z,21.14
2022-08-01T04:21:01.691Z,21.16
2022-08-01T04:23:32.414Z,21.17
2022-08-01T04:26:03.438Z,21.19
2022-08-01T04:28:33.493Z,21.19
2022-08-01T04:31:02.381Z,21.22
2022-08-01T04:33:31.949Z,21.23
2022-08-01T04:36:05.081Z,21.23
2022-08-01T04:38:35.313Z,21.23
2022-08-01T04:41:03.999Z,21.22
2022-08-01T04:43:37.753Z,21.25
2022-08-01T04:46:05.670Z,21.28
2022-08-01T04:48:34.030Z,21.34
2022-08-01T04:51:02.917Z,21.39
2022-08-01T04:53:33.276Z,21.44
2022-08-01T04:56:01.586Z,21.48
2022-08-01T04:58:29.114Z,21.52
2022-08-01T05:00:56.671Z,21.55
2022-08-01T05:03:24.206Z,21.58
2022-08-01T05:05:51.739Z,21.60
2022-08-01T05:08:20.596Z,21.66
2022-08-01T05:10:48.080Z,21.67
2022-08-01T05:13:15.587Z,21.71
2022-08-01T05:18:10.566Z,21.76
2022-08-01T05:20:38.815Z,21.76
2022-08-01T05:23:06.684Z,21.78
2022-08-01T05:25:58.078Z,21.80
2022-08-01T05:28:26.609Z,21.80
2022-08-01T05:30:55.740Z,21.82
2022-08-01T05:33:23.610Z,21.82
2022-08-01T05:35:51.128Z,21.84
2022-08-01T05:38:18.667Z,21.86
2022-08-01T05:40:47.524Z,21.87
2022-08-01T05:43:15.030Z,21.90
2022-08-01T05:45:43.313Z,21.91
2022-08-01T05:48:10.978Z,21.95
2022-08-01T05:50:38.547Z,21.99
2022-08-01T05:53:06.072Z,22.03
2022-08-01T05:55:33.577Z,22.09
2022-08-01T05:58:02.475Z,22.14
2022-08-01T06:00:30.214Z,22.18
2022-08-01T06:02:57.710Z,22.24
2022-08-01T06:05:25.399Z,22.26
2022-08-01T06:07:52.992Z,22.33
2022-08-01T06:10:20.571Z,22.38
2022-08-01T06:12:48.073Z,22.45
2022-08-01T06:15:16.942Z,22.50
2022-08-01T06:17:44.449Z,22.54
2022-08-01T06:20:12.219Z,22.59
2022-08-01T06:22:39.768Z,22.63
2022-08-01T06:25:10.017Z,22.69
2022-08-01T06:27:37.558Z,22.75
2022-08-01T06:30:05.877Z,22.80
2022-08-01T06:32:35.071Z,22.86
2022-08-01T06:35:02.559Z,22.91
2022-08-01T06:37:31.092Z,22.94
2022-08-01T06:40:01.903Z,22.98
2022-08-01T06:42:29.899Z,23.03
2022-08-01T06:44:57.601Z,23.07
2022-08-01T06:47:25.190Z,23.10
2022-08-01T06:49:54.014Z,23.13
2022-08-01T06:52:21.531Z,23.16
2022-08-01T06:54:49.037Z,23.20
2022-08-01T06:57:16.572Z,23.25
2022-08-01T06:59:54.280Z,23.30
2022-08-01T07:02:22.828Z,23.36
2022-08-01T07:04:50.537Z,23.42
2022-08-01T07:07:19.375Z,23.49
2022-08-01T07:09:46.884Z,23.53
2022-08-01T07:12:14.409Z,23.55
2022-08-01T07:14:42.007Z,23.56
2022-08-01T07:17:09.527Z,23.58
2022-08-01T07:19:38.537Z,23.60
2022-08-01T07:22:06.501Z,23.62
2022-08-01T07:24:35.802Z,23.65
2022-08-01T07:27:11.474Z,23.68
2022-08-01T07:29:50.895Z,23.74
2022-08-01T07:32:18.416Z,23.80
2022-08-01T07:34:45.890Z,23.83
2022-08-01T07:37:13.416Z,23.88
2022-08-01T07:39:42.261Z,23.96
2022-08-01T07:42:10.062Z,24.03
2022-08-01T07:44:38.204Z,24.08
2022-08-01T07:47:06.526Z,24.16
2022-08-01T07:49:39.374Z,24.22
2022-08-01T07:52:08.026Z,24.28
2022-08-01T07:54:36.039Z,24.34
2022-08-01T07:57:05.383Z,24.43
2022-08-01T07:59:32.939Z,24.52
2022-08-01T08:02:01.247Z,24.59
2022-08-01T08:04:29.708Z,24.67
2022-08-01T08:06:57.218Z,24.74
2022-08-01T08:09:24.820Z,24.81
2022-08-01T08:11:52.372Z,24.87
2022-08-01T08:14:23.670Z,24.91
2022-08-01T08:17:00.198Z,24.99
2022-08-01T08:19:37.994Z,25.04
2022-08-01T08:22:07.465Z,25.13
2022-08-01T08:24:35.292Z,25.21
2022-08-01T08:27:03.226Z,25.31
2022-08-01T08:29:33.692Z,25.39
2022-08-01T08:32:02.409Z,25.45
2022-08-01T08:34:30.662Z,25.49
2022-08-01T08:36:59.181Z,25.55
2022-08-01T08:39:27.448Z,25.58
2022-08-01T08:41:55.233Z,25.65
2022-08-01T09:57:31.842Z,26.73
2022-08-01T10:00:02.112Z,26.78
2022-08-01T10:02:35.572Z,26.81
2022-08-01T10:05:08.077Z,26.80
2022-08-01T10:07:43.946Z,26.82
2022-08-01T11:17:54.585Z,27.55
2022-08-01T12:52:13.373Z,28.09
2022-08-01T12:57:34.304Z,28.09
2022-08-01T13:00:28.942Z,28.07
2022-08-01T13:35:59.177Z,27.88
2022-08-01T13:38:44.206Z,27.90
2022-08-01T13:47:32.057Z,27.91
2022-08-01T13:50:01.590Z,27.89
2022-08-01T13:52:31.565Z,27.85
2022-08-01T13:54:59.137Z,27.82
2022-08-01T13:57:36.653Z,27.80
2022-08-01T14:00:06.624Z,27.79
2022-08-01T14:02:34.908Z,27.77
2022-08-01T14:05:02.448Z,27.77
2022-08-01T14:07:31.325Z,27.78
2022-08-01T14:10:17.481Z,27.81
2022-08-01T14:12:46.438Z,27.82
2022-08-01T14:15:36.799Z,27.83
2022-08-01T14:18:03.861Z,27.85
2022-08-01T14:20:33.832Z,27.87
2022-08-01T14:23:02.774Z,27.90
2022-08-01T14:26:03.013Z,27.96
2022-08-01T14:28:18.526Z,28.01
2022-08-01T14:30:46.346Z,28.06
2022-08-01T14:33:14.760Z,28.09
2022-08-01T14:35:52.339Z,28.12
2022-08-01T14:38:34.171Z,28.11
2022-08-01T14:41:04.172Z,28.09
2022-08-01T14:43:33.577Z,28.07
2022-08-01T14:46:01.875Z,28.07
2022-08-01T14:48:30.165Z,28.09
2022-08-01T14:50:58.041Z,28.10
2022-08-01T14:53:25.572Z,28.08
2022-08-01T14:55:54.405Z,28.03
2022-08-01T14:58:21.976Z,28.02
2022-08-01T15:00:49.579Z,28.02
2022-08-01T15:03:17.176Z,28.02
2022-08-01T15:05:44.702Z,28.00
2022-08-01T15:08:12.222Z,27.97
2022-08-01T15:10:39.864Z,27.92
2022-08-01T15:13:08.766Z,27.89
2022-08-01T15:15:36.288Z,27.87
2022-08-01T15:18:03.858Z,27.87
2022-08-01T15:20:31.544Z,27.87
2022-08-01T15:22:59.046Z,27.88
2022-08-01T15:25:26.612Z,27.88
2022-08-01T15:28:10.164Z,27.88
2022-08-01T15:30:37.689Z,27.88
2022-08-01T15:33:05.712Z,27.91
2022-08-01T15:35:33.343Z,27.95
2022-08-01T15:38:00.935Z,27.95
2022-08-01T15:40:29.252Z,27.98
2022-08-01T15:42:56.945Z,27.99
2022-08-01T15:48:14.799Z,28.02
2022-08-01T15:50:42.364Z,28.00
2022-08-01T15:53:09.874Z,27.98
2022-08-01T15:55:37.733Z,27.97
2022-08-01T15:58:06.501Z,27.98
2022-08-01T16:00:39.136Z,27.98
2022-08-01T16:03:07.726Z,27.99
2022-08-01T16:05:42.563Z,27.98
2022-08-01T16:08:11.202Z,27.99
2022-08-01T16:10:38.719Z,27.96
2022-08-01T16:13:07.389Z,27.98
2022-08-01T16:15:37.724Z,28.00
2022-08-01T16:18:06.262Z,28.02
2022-08-01T16:20:33.881Z,28.03
2022-08-01T16:23:01.544Z,28.02
2022-08-01T16:25:29.074Z,28.00
2022-08-01T16:27:56.605Z,27.99
2022-08-01T16:30:24.876Z,27.93
2022-08-01T16:32:54.413Z,27.91
2022-08-01T16:35:24.551Z,27.88
2022-08-01T16:38:00.790Z,27.83
2022-08-01T16:40:28.411Z,27.79
2022-08-01T16:42:56.157Z,27.77
2022-08-01T16:45:26.131Z,27.74
2022-08-01T16:47:56.811Z,27.72
2022-08-01T16:50:28.833Z,27.68
2022-08-01T16:52:56.594Z,27.63
2022-08-01T16:55:24.225Z,27.59
2022-08-01T16:57:51.752Z,27.57
2022-08-01T17:00:21.035Z,27.53
2022-08-01T17:02:49.411Z,27.50
2022-08-01T17:05:18.299Z,27.49
2022-08-01T17:07:45.826Z,27.47
2022-08-01T17:10:14.150Z,27.48
2022-08-01T17:12:42.410Z,27.46
2022-08-01T17:15:10.866Z,27.45
2022-08-01T17:17:38.472Z,27.44
2022-08-01T17:20:07.119Z,27.41
2022-08-01T17:22:36.000Z,27.38
2022-08-01T17:25:03.793Z,27.33
2022-08-01T17:27:31.308Z,27.29
2022-08-01T17:29:58.829Z,27.27
2022-08-01T17:32:26.332Z,27.23
2022-08-01T17:34:53.834Z,27.18
2022-08-01T17:37:21.316Z,27.13
2022-08-01T17:39:50.152Z,27.10
2022-08-01T17:42:17.712Z,27.06
2022-08-01T17:44:48.965Z,27.02
2022-08-01T17:47:34.412Z,26.97
2022-08-01T17:50:04.228Z,26.90
2022-08-01T17:52:32.550Z,26.84
2022-08-01T17:55:02.259Z,26.71
2022-08-01T17:57:30.756Z,26.55
2022-08-01T17:59:58.890Z,26.41
2022-08-01T18:02:27.202Z,26.29
2022-08-01T18:04:54.983Z,26.19
2022-08-01T18:08:01.458Z,26.14
2022-08-01T18:10:11.963Z,26.06
2022-08-01T18:12:39.865Z,26.02
2022-08-01T18:15:08.169Z,25.98
2022-08-01T18:17:35.987Z,25.94
2022-08-01T18:20:03.656Z,25.89
2022-08-01T18:22:33.068Z,25.82
2022-08-01T18:25:08.371Z,25.73
2022-08-01T18:28:22.661Z,25.61
2022-08-01T18:30:26.077Z,25.53
2022-08-01T18:32:53.612Z,25.46
2022-08-01T18:35:22.520Z,25.40
2022-08-01T18:37:55.447Z,25.35
2022-08-01T18:40:23.413Z,25.28
2022-08-01T18:42:54.121Z,25.20
2022-08-01T18:45:21.984Z,25.05
2022-08-01T18:47:49.719Z,24.89
2022-08-01T18:50:17.322Z,24.78
2022-08-01T18:52:44.864Z,24.71
2022-08-01T18:55:12.459Z,24.67
2022-08-01T18:57:42.598Z,24.62
2022-08-01T19:00:14.671Z,24.57
2022-08-01T19:02:42.705Z,24.53
2022-08-01T19:05:11.174Z,24.49
2022-08-01T19:08:05.577Z,24.41
2022-08-01T19:10:26.356Z,24.29
2022-08-01T19:12:53.856Z,24.17
2022-08-01T19:15:22.770Z,24.06
2022-08-01T19:17:50.304Z,23.95
2022-08-01T19:20:17.847Z,23.91
2022-08-01T19:22:45.479Z,23.83
2022-08-01T19:25:15.126Z,23.74
2022-08-01T19:27:46.910Z,23.60
2022-08-01T19:30:15.194Z,23.48
2022-08-01T19:32:45.868Z,23.39
2022-08-01T19:35:16.885Z,23.32
2022-08-01T19:37:47.636Z,23.28
2022-08-01T19:40:27.151Z,23.22
2022-08-01T19:42:56.982Z,23.18
2022-08-01T19:45:25.089Z,23.14
2022-08-01T19:47:56.532Z,23.12
2022-08-01T19:50:25.440Z,23.09
2022-08-01T19:52:54.875Z,23.07
2022-08-01T19:55:24.356Z,23.03
2022-08-01T20:00:42.730Z,23.00
2022-08-01T20:03:12.874Z,22.99
2022-08-01T20:05:41.340Z,22.96
2022-08-01T20:08:10.198Z,22.94
2022-08-01T20:10:38.447Z,22.94
2022-08-01T20:13:07.450Z,22.93
2022-08-01T20:15:35.314Z,22.91
2022-08-01T20:18:02.863Z,22.88
2022-08-01T20:20:33.360Z,22.86
2022-08-01T20:23:03.980Z,22.80
2022-08-01T20:25:39.962Z,22.73
2022-08-01T20:28:11.242Z,22.67
2022-08-01T20:30:38.875Z,22.64
2022-08-01T20:33:07.183Z,22.61
2022-08-01T20:35:51.986Z,22.56
2022-08-01T20:38:23.203Z,22.52
2022-08-01T20:40:52.654Z,22.46
2022-08-01T20:43:21.901Z,22.38
2022-08-01T20:45:50.371Z,22.33
2022-08-01T20:48:18.483Z,22.32
2022-08-01T20:51:06.956Z,22.33
2022-08-01T20:53:40.831Z,22.36
2022-08-01T20:56:15.779Z,22.38
2022-08-01T20:58:58.815Z,22.38
2022-08-01T21:01:29.588Z,22.40
2022-08-01T21:04:10.811Z,22.46
2022-08-01T21:06:43.743Z,22.48
2022-08-01T21:09:14.797Z,22.51
2022-08-01T21:11:50.191Z,22.56
2022-08-01T21:14:22.131Z,22.56
2022-08-01T21:16:57.615Z,22.52
2022-08-01T21:19:28.448Z,22.51
2022-08-01T21:22:12.025Z,22.51
2022-08-01T21:24:58.306Z,22.54
2022-08-01T21:27:33.602Z,22.56
2022-08-01T21:30:04.112Z,22.57
2022-08-01T21:32:34.156Z,22.55
2022-08-01T21:35:02.841Z,22.51
2022-08-01T21:37:32.652Z,22.49
2022-08-01T21:40:10.018Z,22.52
2022-08-01T21:42:39.772Z,22.55
2022-08-01T21:45:09.526Z,22.53
2022-08-01T21:47:38.300Z,22.50
2022-08-01T21:50:09.447Z,22.47
2022-08-01T21:52:45.125Z,22.44
2022-08-01T21:55:33.946Z,22.44
2022-08-01T21:58:14.650Z,22.43
2022-08-01T22:00:47.807Z,22.41
2022-08-01T22:03:24.255Z,22.41
2022-08-01T22:05:53.737Z,22.42
2022-08-01T22:08:34.044Z,22.46
2022-08-01T22:11:05.245Z,22.46
2022-08-01T22:13:34.688Z,22.47
2022-08-01T22:16:04.285Z,22.48
2022-08-01T22:18:34.084Z,22.46
2022-08-01T22:21:03.341Z,22.46
2022-08-01T22:23:36.652Z,22.51
2022-08-01T22:26:07.424Z,22.55
2022-08-01T22:28:35.409Z,22.57
2022-08-01T22:31:03.201Z,22.59
2022-08-01T22:33:31.727Z,22.61
2022-08-01T22:36:00.204Z,22.60
2022-08-01T22:38:27.725Z,22.60
2022-08-01T22:41:02.164Z,22.60
2022-08-01T22:43:39.573Z,22.60
2022-08-01T22:46:17.457Z,22.59
2022-08-01T22:48:49.264Z,22.61
2022-08-01T22:51:32.625Z,22.60
2022-08-01T22:54:06.008Z,22.60
2022-08-01T22:56:39.997Z,22.57
2022-08-01T22:59:14.719Z,22.55
2022-08-01T23:01:47.885Z,22.56
2022-08-01T23:04:24.281Z,22.55
2022-08-01T23:07:05.453Z,22.53
2022-08-01T23:09:52.747Z,22.48
2022-08-01T23:12:24.509Z,22.33
2022-08-01T23:14:54.663Z,22.19
2022-08-01T23:17:27.219Z,22.11
2022-08-01T23:19:58.978Z,22.03
2022-08-01T23:22:30.690Z,21.97
2022-08-01T23:25:03.980Z,21.94
2022-08-01T23:28:03.791Z,21.88
2022-08-01T23:30:25.733Z,21.80
2022-08-01T23:32:53.302Z,21.72
2022-08-01T23:35:20.998Z,21.69
2022-08-01T23:37:50.934Z,21.70
2022-08-01T23:40:19.478Z,21.75
2022-08-01T23:42:48.506Z,21.74
2022-08-01T23:45:16.088Z,21.70
2022-08-01T23:47:43.741Z,21.63
2022-08-01T23:50:11.411Z,21.50
2022-08-01T23:52:49.736Z,21.39
2022-08-01T23:55:18.257Z,21.28
2022-08-01T23:57:48.721Z,21.21
